sensor_id;sensor_type;location;lat;lon;timestamp;pressure;altitude;pressure_sealevel;temperature;humidity
74613;BME280;63119;51.788;8.824;2024-02-16T00:00:08;99655.09;;;12.13;86.98
74613;BME280;63119;51.788;8.824;2024-02-16T00:02:36;99644.59;;;12.11;86.34
74613;BME280;63119;51.788;8.824;2024-02-16T00:05:02;99642.19;;;12.08;86.31
74613;BME280;63119;51.788;8.824;2024-02-16T00:07:28;99647.72;;;12.16;86.02
74613;BME280;63119;51.788;8.824;2024-02-16T00:09:54;99647.38;;;12.21;85.71
74613;BME280;63119;51.788;8.824;2024-02-16T00:12:19;99645.06;;;12.27;85.18
74613;BME280;63119;51.788;8.824;2024-02-16T00:14:44;99644.94;;;12.29;84.85
74613;BME280;63119;51.788;8.824;2024-02-16T00:17:11;99647.72;;;12.27;85.10
74613;BME280;63119;51.788;8.824;2024-02-16T00:19:36;99649.38;;;12.28;84.57
74613;BME280;63119;51.788;8.824;2024-02-16T00:22:02;99650.50;;;12.26;84.92
74613;BME280;63119;51.788;8.824;2024-02-16T00:24:27;99651.09;;;12.29;85.05
74613;BME280;63119;51.788;8.824;2024-02-16T00:26:53;99646.97;;;12.25;85.25
74613;BME280;63119;51.788;8.824;2024-02-16T00:29:18;99642.31;;;12.18;84.53
74613;BME280;63119;51.788;8.824;2024-02-16T00:31:44;99635.56;;;12.25;84.53
74613;BME280;63119;51.788;8.824;2024-02-16T00:34:10;99640.88;;;12.25;84.03
74613;BME280;63119;51.788;8.824;2024-02-16T00:36:35;99639.78;;;12.27;84.10
74613;BME280;63119;51.788;8.824;2024-02-16T00:39:00;99642.41;;;12.27;83.52
74613;BME280;63119;51.788;8.824;2024-02-16T00:41:26;99642.13;;;12.41;83.07
74613;BME280;63119;51.788;8.824;2024-02-16T00:43:52;99647.34;;;12.43;82.57
74613;BME280;63119;51.788;8.824;2024-02-16T00:46:18;99645.69;;;12.31;83.11
74613;BME280;63119;51.788;8.824;2024-02-16T00:48:43;99640.13;;;12.23;83.88
74613;BME280;63119;51.788;8.824;2024-02-16T00:51:08;99642.53;;;12.26;83.81
74613;BME280;63119;51.788;8.824;2024-02-16T00:53:34;99636.03;;;12.30;83.28
74613;BME280;63119;51.788;8.824;2024-02-16T00:55:59;99646.88;;;12.27;83.32
74613;BME280;63119;51.788;8.824;2024-02-16T00:58:24;99638.56;;;12.20;83.92
74613;BME280;63119;51.788;8.824;2024-02-16T01:00:49;99634.72;;;12.24;83.14
74613;BME280;63119;51.788;8.824;2024-02-16T01:03:15;99632.75;;;12.26;83.10
74613;BME280;63119;51.788;8.824;2024-02-16T01:05:40;99633.88;;;12.24;83.06
74613;BME280;63119;51.788;8.824;2024-02-16T01:08:06;99626.63;;;12.15;83.35
74613;BME280;63119;51.788;8.824;2024-02-16T01:10:31;99632.06;;;12.24;83.25
74613;BME280;63119;51.788;8.824;2024-02-16T01:12:56;99628.09;;;12.19;83.29
74613;BME280;63119;51.788;8.824;2024-02-16T01:15:22;99620.59;;;12.24;82.93
74613;BME280;63119;51.788;8.824;2024-02-16T01:17:47;99616.13;;;12.24;82.59
74613;BME280;63119;51.788;8.824;2024-02-16T01:20:12;99615.53;;;12.21;82.76
74613;BME280;63119;51.788;8.824;2024-02-16T01:22:39;99609.75;;;12.27;82.17
74613;BME280;63119;51.788;8.824;2024-02-16T01:25:04;99616.50;;;12.31;82.41
74613;BME280;63119;51.788;8.824;2024-02-16T01:27:30;99612.41;;;12.27;82.55
74613;BME280;63119;51.788;8.824;2024-02-16T01:29:55;99613.34;;;12.26;82.18
74613;BME280;63119;51.788;8.824;2024-02-16T01:32:20;99610.69;;;12.26;82.14
74613;BME280;63119;51.788;8.824;2024-02-16T01:34:46;99616.50;;;12.31;82.47
74613;BME280;63119;51.788;8.824;2024-02-16T01:37:14;99614.91;;;12.28;82.26
74613;BME280;63119;51.788;8.824;2024-02-16T01:39:39;99616.25;;;12.23;82.38
74613;BME280;63119;51.788;8.824;2024-02-16T01:42:05;99610.72;;;12.15;82.74
74613;BME280;63119;51.788;8.824;2024-02-16T01:44:30;99611.31;;;12.18;82.64
74613;BME280;63119;51.788;8.824;2024-02-16T01:46:55;99608.19;;;12.13;82.93
74613;BME280;63119;51.788;8.824;2024-02-16T01:49:20;99605.19;;;12.07;82.75
74613;BME280;63119;51.788;8.824;2024-02-16T01:51:46;99604.72;;;12.01;83.53
74613;BME280;63119;51.788;8.824;2024-02-16T01:54:12;99605.09;;;11.97;83.83
74613;BME280;63119;51.788;8.824;2024-02-16T01:56:37;99609.91;;;12.03;83.29
74613;BME280;63119;51.788;8.824;2024-02-16T01:59:03;99607.72;;;12.08;82.89
74613;BME280;63119;51.788;8.824;2024-02-16T02:01:28;99596.03;;;11.99;83.64
74613;BME280;63119;51.788;8.824;2024-02-16T02:03:53;99605.19;;;11.95;83.37
74613;BME280;63119;51.788;8.824;2024-02-16T02:06:18;99605.31;;;12.05;82.44
74613;BME280;63119;51.788;8.824;2024-02-16T02:08:44;99597.00;;;12.10;82.46
74613;BME280;63119;51.788;8.824;2024-02-16T02:11:09;99599.41;;;12.01;83.48
74613;BME280;63119;51.788;8.824;2024-02-16T02:13:34;99600.38;;;11.89;83.83
74613;BME280;63119;51.788;8.824;2024-02-16T02:16:00;99597.00;;;11.87;84.77
74613;BME280;63119;51.788;8.824;2024-02-16T02:18:25;99592.94;;;11.72;85.40
74613;BME280;63119;51.788;8.824;2024-02-16T02:20:51;99588.41;;;11.62;85.91
74613;BME280;63119;51.788;8.824;2024-02-16T02:23:16;99595.75;;;11.58;86.12
74613;BME280;63119;51.788;8.824;2024-02-16T02:25:41;99589.28;;;11.51;86.81
74613;BME280;63119;51.788;8.824;2024-02-16T02:28:07;99599.50;;;11.44;87.37
74613;BME280;63119;51.788;8.824;2024-02-16T02:30:33;99597.66;;;11.34;87.74
74613;BME280;63119;51.788;8.824;2024-02-16T02:32:58;99593.13;;;11.36;88.54
74613;BME280;63119;51.788;8.824;2024-02-16T02:35:23;99577.94;;;11.27;88.27
74613;BME280;63119;51.788;8.824;2024-02-16T02:37:49;99585.03;;;11.26;88.46
74613;BME280;63119;51.788;8.824;2024-02-16T02:40:14;99579.59;;;11.17;89.87
74613;BME280;63119;51.788;8.824;2024-02-16T02:42:39;99570.19;;;11.02;91.09
74613;BME280;63119;51.788;8.824;2024-02-16T02:45:05;99569.22;;;11.03;90.41
74613;BME280;63119;51.788;8.824;2024-02-16T02:47:31;99568.84;;;11.07;90.27
74613;BME280;63119;51.788;8.824;2024-02-16T02:49:56;99565.94;;;10.88;91.87
74613;BME280;63119;51.788;8.824;2024-02-16T02:52:21;99558.72;;;10.90;91.82
74613;BME280;63119;51.788;8.824;2024-02-16T02:54:46;99550.53;;;10.93;91.34
74613;BME280;63119;51.788;8.824;2024-02-16T02:57:12;99555.00;;;10.92;91.75
74613;BME280;63119;51.788;8.824;2024-02-16T02:59:37;99545.88;;;10.96;90.86
74613;BME280;63119;51.788;8.824;2024-02-16T03:02:02;99550.41;;;10.94;90.75
74613;BME280;63119;51.788;8.824;2024-02-16T03:04:28;99549.09;;;10.89;91.17
74613;BME280;63119;51.788;8.824;2024-02-16T03:06:53;99549.22;;;10.87;91.10
74613;BME280;63119;51.788;8.824;2024-02-16T03:09:18;99545.09;;;10.83;91.27
74613;BME280;63119;51.788;8.824;2024-02-16T03:11:43;99541.16;;;10.89;91.65
74613;BME280;63119;51.788;8.824;2024-02-16T03:14:09;99545.88;;;10.96;90.26
74613;BME280;63119;51.788;8.824;2024-02-16T03:16:34;99555.25;;;11.01;90.26
74613;BME280;63119;51.788;8.824;2024-02-16T03:18:59;99556.31;;;10.98;90.33
74613;BME280;63119;51.788;8.824;2024-02-16T03:21:25;99552.25;;;11.16;89.19
74613;BME280;63119;51.788;8.824;2024-02-16T03:23:50;99553.72;;;11.09;90.03
74613;BME280;63119;51.788;8.824;2024-02-16T03:26:19;99551.19;;;11.08;90.18
74613;BME280;63119;51.788;8.824;2024-02-16T03:28:45;99548.53;;;11.19;89.52
74613;BME280;63119;51.788;8.824;2024-02-16T03:31:19;99540.09;;;11.25;88.21
74613;BME280;63119;51.788;8.824;2024-02-16T03:33:45;99545.31;;;11.15;90.12
74613;BME280;63119;51.788;8.824;2024-02-16T03:36:10;99547.94;;;11.26;89.34
74613;BME280;63119;51.788;8.824;2024-02-16T03:38:37;99543.75;;;11.24;89.37
74613;BME280;63119;51.788;8.824;2024-02-16T03:41:03;99543.16;;;11.42;87.18
74613;BME280;63119;51.788;8.824;2024-02-16T03:43:29;99540.00;;;11.60;85.05
74613;BME280;63119;51.788;8.824;2024-02-16T03:45:54;99539.91;;;11.72;83.97
74613;BME280;63119;51.788;8.824;2024-02-16T03:48:19;99538.06;;;11.95;82.97
74613;BME280;63119;51.788;8.824;2024-02-16T03:50:45;99542.75;;;12.02;81.53
74613;BME280;63119;51.788;8.824;2024-02-16T03:53:11;99537.66;;;12.11;81.43
74613;BME280;63119;51.788;8.824;2024-02-16T03:55:36;99535.63;;;12.14;81.74
74613;BME280;63119;51.788;8.824;2024-02-16T03:58:03;99528.91;;;11.99;83.47
74613;BME280;63119;51.788;8.824;2024-02-16T04:00:28;99532.88;;;12.04;82.37
74613;BME280;63119;51.788;8.824;2024-02-16T04:02:54;99533.84;;;12.03;82.35
74613;BME280;63119;51.788;8.824;2024-02-16T04:05:19;99528.53;;;12.03;81.96
74613;BME280;63119;51.788;8.824;2024-02-16T04:07:44;99533.41;;;12.19;80.98
74613;BME280;63119;51.788;8.824;2024-02-16T04:10:09;99536.31;;;12.27;80.87
74613;BME280;63119;51.788;8.824;2024-02-16T04:12:35;99530.16;;;12.27;80.61
74613;BME280;63119;51.788;8.824;2024-02-16T04:15:01;99529.19;;;12.28;80.17
74613;BME280;63119;51.788;8.824;2024-02-16T04:17:26;99529.66;;;12.33;80.15
74613;BME280;63119;51.788;8.824;2024-02-16T04:19:51;99531.91;;;12.37;80.15
74613;BME280;63119;51.788;8.824;2024-02-16T04:22:17;99541.72;;;12.37;80.24
74613;BME280;63119;51.788;8.824;2024-02-16T04:24:42;99543.16;;;12.30;80.38
74613;BME280;63119;51.788;8.824;2024-02-16T04:27:07;99541.72;;;12.37;79.90
74613;BME280;63119;51.788;8.824;2024-02-16T04:29:32;99535.81;;;12.33;80.11
74613;BME280;63119;51.788;8.824;2024-02-16T04:31:58;99545.91;;;12.39;80.12
74613;BME280;63119;51.788;8.824;2024-02-16T04:34:23;99542.53;;;12.37;80.24
74613;BME280;63119;51.788;8.824;2024-02-16T04:36:48;99554.06;;;12.47;79.71
74613;BME280;63119;51.788;8.824;2024-02-16T04:39:14;99554.31;;;12.44;79.69
74613;BME280;63119;51.788;8.824;2024-02-16T04:41:40;99560.47;;;12.45;79.54
74613;BME280;63119;51.788;8.824;2024-02-16T04:44:05;99558.53;;;12.47;79.82
74613;BME280;63119;51.788;8.824;2024-02-16T04:46:30;99566.25;;;12.50;79.70
74613;BME280;63119;51.788;8.824;2024-02-16T04:48:56;99561.69;;;12.41;80.39
74613;BME280;63119;51.788;8.824;2024-02-16T04:51:21;99562.09;;;12.36;80.13
74613;BME280;63119;51.788;8.824;2024-02-16T04:53:46;99558.59;;;12.36;79.88
74613;BME280;63119;51.788;8.824;2024-02-16T04:56:11;99566.28;;;12.39;80.22
74613;BME280;63119;51.788;8.824;2024-02-16T04:58:42;99566.63;;;12.45;79.39
74613;BME280;63119;51.788;8.824;2024-02-16T05:01:08;99560.09;;;12.49;79.54
74613;BME280;63119;51.788;8.824;2024-02-16T05:03:33;99569.16;;;12.47;79.46
74613;BME280;63119;51.788;8.824;2024-02-16T05:06:00;99552.06;;;12.40;79.66
74613;BME280;63119;51.788;8.824;2024-02-16T05:08:25;99544.66;;;12.43;79.00
74613;BME280;63119;51.788;8.824;2024-02-16T05:10:50;99544.31;;;12.48;78.87
74613;BME280;63119;51.788;8.824;2024-02-16T05:13:15;99542.41;;;12.39;79.99
74613;BME280;63119;51.788;8.824;2024-02-16T05:15:41;99536.06;;;12.30;80.65
74613;BME280;63119;51.788;8.824;2024-02-16T05:18:06;99543.63;;;12.35;79.74
74613;BME280;63119;51.788;8.824;2024-02-16T05:20:32;99536.06;;;12.30;79.79
74613;BME280;63119;51.788;8.824;2024-02-16T05:22:57;99534.97;;;12.33;79.50
74613;BME280;63119;51.788;8.824;2024-02-16T05:25:22;99530.94;;;12.38;79.15
74613;BME280;63119;51.788;8.824;2024-02-16T05:27:48;99529.84;;;12.41;78.68
74613;BME280;63119;51.788;8.824;2024-02-16T05:30:13;99530.84;;;12.40;79.22
74613;BME280;63119;51.788;8.824;2024-02-16T05:32:41;99525.56;;;12.29;79.49
74613;BME280;63119;51.788;8.824;2024-02-16T05:35:07;99530.84;;;12.40;79.12
74613;BME280;63119;51.788;8.824;2024-02-16T05:37:47;99528.50;;;12.46;79.04
74613;BME280;63119;51.788;8.824;2024-02-16T05:40:19;99526.25;;;12.42;79.43
74613;BME280;63119;51.788;8.824;2024-02-16T05:42:51;99520.09;;;12.41;79.14
74613;BME280;63119;51.788;8.824;2024-02-16T05:45:17;99532.84;;;12.47;79.39
74613;BME280;63119;51.788;8.824;2024-02-16T05:47:44;99531.16;;;12.46;79.87
74613;BME280;63119;51.788;8.824;2024-02-16T05:50:11;99516.41;;;12.53;79.66
74613;BME280;63119;51.788;8.824;2024-02-16T05:52:37;99517.38;;;12.52;79.74
74613;BME280;63119;51.788;8.824;2024-02-16T05:55:03;99520.16;;;12.51;80.24
74613;BME280;63119;51.788;8.824;2024-02-16T05:57:29;99518.22;;;12.53;79.66
74613;BME280;63119;51.788;8.824;2024-02-16T05:59:54;99515.91;;;12.59;79.52
74613;BME280;63119;51.788;8.824;2024-02-16T06:02:19;99517.44;;;12.62;79.34
74613;BME280;63119;51.788;8.824;2024-02-16T06:04:45;99507.34;;;12.56;79.67
74613;BME280;63119;51.788;8.824;2024-02-16T06:07:10;99513.66;;;12.55;80.15
74613;BME280;63119;51.788;8.824;2024-02-16T06:09:36;99511.81;;;12.55;80.27
74613;BME280;63119;51.788;8.824;2024-02-16T06:12:05;99521.22;;;12.59;80.39
74613;BME280;63119;51.788;8.824;2024-02-16T06:14:32;99514.47;;;12.55;80.39
74613;BME280;63119;51.788;8.824;2024-02-16T06:16:58;99518.56;;;12.59;80.20
74613;BME280;63119;51.788;8.824;2024-02-16T06:19:24;99518.56;;;12.59;80.19
74613;BME280;63119;51.788;8.824;2024-02-16T06:21:49;99524.81;;;12.58;79.89
74613;BME280;63119;51.788;8.824;2024-02-16T06:24:14;99521.34;;;12.58;80.14
74613;BME280;63119;51.788;8.824;2024-02-16T06:26:39;99518.44;;;12.61;79.85
74613;BME280;63119;51.788;8.824;2024-02-16T06:29:05;99512.41;;;12.59;80.30
74613;BME280;63119;51.788;8.824;2024-02-16T06:31:30;99508.63;;;12.61;79.96
74613;BME280;63119;51.788;8.824;2024-02-16T06:33:55;99520.75;;;12.54;80.41
74613;BME280;63119;51.788;8.824;2024-02-16T06:36:21;99522.44;;;12.55;80.30
74613;BME280;63119;51.788;8.824;2024-02-16T06:38:46;99528.00;;;12.52;80.34
74613;BME280;63119;51.788;8.824;2024-02-16T06:41:12;99530.09;;;12.70;79.90
74613;BME280;63119;51.788;8.824;2024-02-16T06:43:37;99535.06;;;12.84;79.83
74613;BME280;63119;51.788;8.824;2024-02-16T06:46:03;99532.59;;;12.71;79.65
74613;BME280;63119;51.788;8.824;2024-02-16T06:48:28;99537.81;;;12.73;79.83
74613;BME280;63119;51.788;8.824;2024-02-16T06:50:53;99538.66;;;12.73;79.31
74613;BME280;63119;51.788;8.824;2024-02-16T06:53:19;99549.03;;;12.65;80.45
74613;BME280;63119;51.788;8.824;2024-02-16T06:55:44;99558.69;;;12.66;79.85
74613;BME280;63119;51.788;8.824;2024-02-16T06:58:09;99564.47;;;12.71;79.71
74613;BME280;63119;51.788;8.824;2024-02-16T07:00:34;99559.88;;;12.73;79.52
74613;BME280;63119;51.788;8.824;2024-02-16T07:03:00;99558.91;;;12.74;79.76
74613;BME280;63119;51.788;8.824;2024-02-16T07:05:26;99555.34;;;12.64;80.32
74613;BME280;63119;51.788;8.824;2024-02-16T07:07:53;99554.84;;;12.70;79.94
74613;BME280;63119;51.788;8.824;2024-02-16T07:10:18;99554.09;;;12.68;80.49
74613;BME280;63119;51.788;8.824;2024-02-16T07:12:44;99559.91;;;12.62;80.72
74613;BME280;63119;51.788;8.824;2024-02-16T07:15:10;99563.06;;;12.67;80.37
74613;BME280;63119;51.788;8.824;2024-02-16T07:17:36;99562.31;;;12.65;81.18
74613;BME280;63119;51.788;8.824;2024-02-16T07:20:02;99565.63;;;12.57;81.36
74613;BME280;63119;51.788;8.824;2024-02-16T07:22:29;99569.63;;;12.52;82.71
74613;BME280;63119;51.788;8.824;2024-02-16T07:24:54;99562.22;;;12.55;82.34
74613;BME280;63119;51.788;8.824;2024-02-16T07:27:19;99573.94;;;12.53;82.93
74613;BME280;63119;51.788;8.824;2024-02-16T07:29:45;99574.19;;;12.50;83.67
74613;BME280;63119;51.788;8.824;2024-02-16T07:32:10;99570.16;;;12.67;83.18
74613;BME280;63119;51.788;8.824;2024-02-16T07:34:35;99570.25;;;12.76;82.04
74613;BME280;63119;51.788;8.824;2024-02-16T07:37:00;99576.50;;;13.07;79.42
74613;BME280;63119;51.788;8.824;2024-02-16T07:39:26;99575.50;;;13.29;79.47
74613;BME280;63119;51.788;8.824;2024-02-16T07:41:51;99569.59;;;13.76;77.95
74613;BME280;63119;51.788;8.824;2024-02-16T07:44:16;99561.75;;;14.24;75.88
74613;BME280;63119;51.788;8.824;2024-02-16T07:46:41;99568.69;;;14.84;72.64
74613;BME280;63119;51.788;8.824;2024-02-16T07:49:07;99569.03;;;15.27;70.33
74613;BME280;63119;51.788;8.824;2024-02-16T07:51:32;99569.81;;;14.91;72.06
74613;BME280;63119;51.788;8.824;2024-02-16T07:53:58;99577.50;;;14.94;72.91
74613;BME280;63119;51.788;8.824;2024-02-16T07:56:23;99577.66;;;14.64;74.10
74613;BME280;63119;51.788;8.824;2024-02-16T07:58:48;99574.38;;;14.32;75.37
74613;BME280;63119;51.788;8.824;2024-02-16T08:01:13;99589.19;;;14.15;76.19
74613;BME280;63119;51.788;8.824;2024-02-16T08:03:41;99581.19;;;14.15;76.84
74613;BME280;63119;51.788;8.824;2024-02-16T08:06:07;99580.63;;;14.11;76.82
74613;BME280;63119;51.788;8.824;2024-02-16T08:08:32;99589.00;;;13.97;78.01
74613;BME280;63119;51.788;8.824;2024-02-16T08:10:57;99573.03;;;13.97;77.82
74613;BME280;63119;51.788;8.824;2024-02-16T08:13:23;99578.16;;;13.89;77.35
74613;BME280;63119;51.788;8.824;2024-02-16T08:15:48;99584.19;;;14.31;76.91
74613;BME280;63119;51.788;8.824;2024-02-16T08:18:13;99592.50;;;14.57;76.13
74613;BME280;63119;51.788;8.824;2024-02-16T08:20:38;99583.53;;;14.48;77.12
74613;BME280;63119;51.788;8.824;2024-02-16T08:23:04;99581.31;;;14.44;77.62
74613;BME280;63119;51.788;8.824;2024-02-16T08:25:29;99585.16;;;14.30;75.65
74613;BME280;63119;51.788;8.824;2024-02-16T08:27:55;99582.13;;;14.35;74.81
74613;BME280;63119;51.788;8.824;2024-02-16T08:30:21;99596.59;;;14.61;74.88
74613;BME280;63119;51.788;8.824;2024-02-16T08:32:46;99603.59;;;14.62;75.54
74613;BME280;63119;51.788;8.824;2024-02-16T08:35:11;99593.34;;;14.57;76.55
74613;BME280;63119;51.788;8.824;2024-02-16T08:37:39;99592.16;;;14.21;76.76
74613;BME280;63119;51.788;8.824;2024-02-16T08:40:05;99597.84;;;14.17;77.13
74613;BME280;63119;51.788;8.824;2024-02-16T08:42:30;99599.00;;;14.24;77.46
74613;BME280;63119;51.788;8.824;2024-02-16T08:44:56;99605.88;;;14.27;77.26
74613;BME280;63119;51.788;8.824;2024-02-16T08:47:24;99610.78;;;14.21;77.42
74613;BME280;63119;51.788;8.824;2024-02-16T08:49:50;99598.28;;;14.12;77.77
74613;BME280;63119;51.788;8.824;2024-02-16T08:52:15;99604.59;;;14.21;78.11
74613;BME280;63119;51.788;8.824;2024-02-16T08:54:42;99609.44;;;14.37;77.64
74613;BME280;63119;51.788;8.824;2024-02-16T08:57:07;99606.63;;;14.38;77.58
74613;BME280;63119;51.788;8.824;2024-02-16T08:59:33;99607.28;;;14.31;77.88
74613;BME280;63119;51.788;8.824;2024-02-16T09:01:59;99620.03;;;14.27;78.14
74613;BME280;63119;51.788;8.824;2024-02-16T09:04:24;99620.09;;;14.37;77.82
74613;BME280;63119;51.788;8.824;2024-02-16T09:06:50;99624.19;;;14.60;76.77
74613;BME280;63119;51.788;8.824;2024-02-16T09:09:16;99631.06;;;14.72;76.76
74613;BME280;63119;51.788;8.824;2024-02-16T09:11:41;99626.56;;;14.63;78.38
74613;BME280;63119;51.788;8.824;2024-02-16T09:14:06;99631.63;;;14.66;77.18
74613;BME280;63119;51.788;8.824;2024-02-16T09:16:31;99626.84;;;14.69;77.64
74613;BME280;63119;51.788;8.824;2024-02-16T09:18:58;99633.44;;;14.56;77.78
74613;BME280;63119;51.788;8.824;2024-02-16T09:21:24;99623.06;;;14.53;78.07
74613;BME280;63119;51.788;8.824;2024-02-16T09:23:52;99624.88;;;14.43;78.79
74613;BME280;63119;51.788;8.824;2024-02-16T09:26:17;99626.81;;;14.50;79.55
74613;BME280;63119;51.788;8.824;2024-02-16T09:28:43;99627.38;;;14.35;80.10
74613;BME280;63119;51.788;8.824;2024-02-16T09:31:08;99623.34;;;14.19;80.09
74613;BME280;63119;51.788;8.824;2024-02-16T09:33:34;99631.84;;;14.34;79.49
74613;BME280;63119;51.788;8.824;2024-02-16T09:36:00;99634.00;;;14.50;79.84
74613;BME280;63119;51.788;8.824;2024-02-16T09:38:26;99645.47;;;14.60;79.45
74613;BME280;63119;51.788;8.824;2024-02-16T09:40:51;99648.41;;;14.57;78.73
74613;BME280;63119;51.788;8.824;2024-02-16T09:43:27;99646.22;;;14.62;78.83
74613;BME280;63119;51.788;8.824;2024-02-16T09:45:54;99648.47;;;14.76;78.54
74613;BME280;63119;51.788;8.824;2024-02-16T09:48:20;99660.81;;;14.77;78.77
74613;BME280;63119;51.788;8.824;2024-02-16T09:50:45;99651.53;;;14.81;77.99
74613;BME280;63119;51.788;8.824;2024-02-16T09:53:11;99649.72;;;14.82;77.66
74613;BME280;63119;51.788;8.824;2024-02-16T09:55:37;99654.91;;;14.83;77.10
74613;BME280;63119;51.788;8.824;2024-02-16T09:58:02;99657.16;;;14.88;76.84
74613;BME280;63119;51.788;8.824;2024-02-16T10:00:30;99663.91;;;14.92;76.88
74613;BME280;63119;51.788;8.824;2024-02-16T10:02:55;99662.78;;;14.94;77.78
74613;BME280;63119;51.788;8.824;2024-02-16T10:05:20;99661.38;;;15.00;77.65
74613;BME280;63119;51.788;8.824;2024-02-16T10:07:46;99662.50;;;14.97;77.51
74613;BME280;63119;51.788;8.824;2024-02-16T10:10:21;99669.94;;;15.03;77.72
74613;BME280;63119;51.788;8.824;2024-02-16T10:13:00;99668.97;;;15.04;77.52
74613;BME280;63119;51.788;8.824;2024-02-16T10:15:25;99668.97;;;15.04;77.74
74613;BME280;63119;51.788;8.824;2024-02-16T10:18:04;99677.38;;;15.09;77.37
74613;BME280;63119;51.788;8.824;2024-02-16T10:20:31;99683.66;;;15.08;77.64
74613;BME280;63119;51.788;8.824;2024-02-16T10:23:06;99688.31;;;15.06;78.48
74613;BME280;63119;51.788;8.824;2024-02-16T10:25:33;99691.66;;;15.08;78.54
74613;BME280;63119;51.788;8.824;2024-02-16T10:28:03;99688.59;;;15.13;78.67
74613;BME280;63119;51.788;8.824;2024-02-16T10:30:30;99688.56;;;15.03;77.73
74613;BME280;63119;51.788;8.824;2024-02-16T10:32:58;99694.88;;;15.12;77.71
74613;BME280;63119;51.788;8.824;2024-02-16T10:35:25;99700.94;;;15.04;78.51
74613;BME280;63119;51.788;8.824;2024-02-16T10:37:50;99701.63;;;15.16;78.03
74613;BME280;63119;51.788;8.824;2024-02-16T10:40:18;99710.75;;;15.13;77.62
74613;BME280;63119;51.788;8.824;2024-02-16T10:42:45;99714.69;;;15.19;78.18
74613;BME280;63119;51.788;8.824;2024-02-16T10:45:11;99721.81;;;15.18;76.96
74613;BME280;63119;51.788;8.824;2024-02-16T10:47:38;99728.97;;;15.27;76.98
74613;BME280;63119;51.788;8.824;2024-02-16T10:50:04;99722.13;;;15.35;76.78
74613;BME280;63119;51.788;8.824;2024-02-16T10:52:31;99723.66;;;15.27;76.84
74613;BME280;63119;51.788;8.824;2024-02-16T10:54:57;99726.03;;;15.40;77.18
74613;BME280;63119;51.788;8.824;2024-02-16T10:57:23;99734.06;;;15.50;76.27
74613;BME280;63119;51.788;8.824;2024-02-16T10:59:52;99735.47;;;15.54;76.40
74613;BME280;63119;51.788;8.824;2024-02-16T11:02:19;99736.31;;;15.64;76.98
74613;BME280;63119;51.788;8.824;2024-02-16T11:04:46;99732.94;;;15.71;76.80
74613;BME280;63119;51.788;8.824;2024-02-16T11:07:15;99737.25;;;15.82;76.44
74613;BME280;63119;51.788;8.824;2024-02-16T11:09:40;99740.59;;;15.94;75.87
74613;BME280;63119;51.788;8.824;2024-02-16T11:12:07;99736.09;;;15.94;74.61
74613;BME280;63119;51.788;8.824;2024-02-16T11:14:43;99738.34;;;15.99;75.82
74613;BME280;63119;51.788;8.824;2024-02-16T11:17:14;99733.03;;;15.89;74.13
74613;BME280;63119;51.788;8.824;2024-02-16T11:19:44;99730.38;;;15.89;74.53
74613;BME280;63119;51.788;8.824;2024-02-16T11:22:10;99730.09;;;15.92;74.86
74613;BME280;63119;51.788;8.824;2024-02-16T11:24:38;99739.47;;;15.96;74.11
74613;BME280;63119;51.788;8.824;2024-02-16T11:27:07;99743.50;;;16.10;74.23
74613;BME280;63119;51.788;8.824;2024-02-16T11:29:35;99743.78;;;16.16;73.75
74613;BME280;63119;51.788;8.824;2024-02-16T11:32:03;99749.50;;;16.31;73.52
74613;BME280;63119;51.788;8.824;2024-02-16T11:34:29;99741.47;;;16.31;72.71
74613;BME280;63119;51.788;8.824;2024-02-16T11:36:56;99741.78;;;16.18;73.35
74613;BME280;63119;51.788;8.824;2024-02-16T11:39:22;99744.34;;;16.20;74.42
74613;BME280;63119;51.788;8.824;2024-02-16T11:41:47;99749.13;;;16.16;73.41
74613;BME280;63119;51.788;8.824;2024-02-16T11:44:13;99755.31;;;16.17;73.40
74613;BME280;63119;51.788;8.824;2024-02-16T11:46:41;99748.59;;;16.03;73.81
74613;BME280;63119;51.788;8.824;2024-02-16T11:49:07;99755.19;;;15.99;74.15
74613;BME280;63119;51.788;8.824;2024-02-16T11:51:33;99743.53;;;16.00;74.86
74613;BME280;63119;51.788;8.824;2024-02-16T11:53:59;99750.13;;;15.96;76.00
74613;BME280;63119;51.788;8.824;2024-02-16T11:56:25;99749.03;;;15.89;77.14
74613;BME280;63119;51.788;8.824;2024-02-16T11:58:51;99762.50;;;15.88;76.54
74613;BME280;63119;51.788;8.824;2024-02-16T12:01:16;99747.94;;;15.72;75.51
74613;BME280;63119;51.788;8.824;2024-02-16T12:03:41;99754.81;;;15.75;76.34
74613;BME280;63119;51.788;8.824;2024-02-16T12:06:19;99750.88;;;15.79;75.20
74613;BME280;63119;51.788;8.824;2024-02-16T12:08:45;99748.66;;;15.74;76.29
74613;BME280;63119;51.788;8.824;2024-02-16T12:11:10;99742.75;;;15.71;76.48
74613;BME280;63119;51.788;8.824;2024-02-16T12:13:36;99750.03;;;15.69;76.20
74613;BME280;63119;51.788;8.824;2024-02-16T12:16:01;99750.47;;;15.74;76.03
74613;BME280;63119;51.788;8.824;2024-02-16T12:18:27;99755.81;;;15.74;75.57
74613;BME280;63119;51.788;8.824;2024-02-16T12:21:02;99746.09;;;15.82;75.89
74613;BME280;63119;51.788;8.824;2024-02-16T12:23:29;99750.19;;;15.77;75.50
74613;BME280;63119;51.788;8.824;2024-02-16T12:25:56;99756.50;;;15.76;75.45
74613;BME280;63119;51.788;8.824;2024-02-16T12:28:25;99759.16;;;15.76;75.14
74613;BME280;63119;51.788;8.824;2024-02-16T12:30:51;99757.06;;;15.70;75.70
74613;BME280;63119;51.788;8.824;2024-02-16T12:33:16;99759.03;;;15.77;75.03
74613;BME280;63119;51.788;8.824;2024-02-16T12:35:42;99769.16;;;15.74;75.62
74613;BME280;63119;51.788;8.824;2024-02-16T12:38:07;99762.97;;;15.64;76.76
74613;BME280;63119;51.788;8.824;2024-02-16T12:40:33;99763.66;;;15.66;76.60
74613;BME280;63119;51.788;8.824;2024-02-16T12:42:58;99778.28;;;15.52;76.93
74613;BME280;63119;51.788;8.824;2024-02-16T12:45:23;99774.06;;;15.50;78.25
74613;BME280;63119;51.788;8.824;2024-02-16T12:47:49;99771.94;;;15.44;78.70
74613;BME280;63119;51.788;8.824;2024-02-16T12:50:15;99776.28;;;15.45;80.41
74613;BME280;63119;51.788;8.824;2024-02-16T12:52:40;99772.50;;;15.38;79.85